createdAt,value
2017-06-25T00:00:02.227Z,809.56
2017-06-25T00:00:06.534Z,809.53
2017-06-25T00:00:10.960Z,809.57
2017-06-25T00:00:15.418Z,809.51
2017-06-25T00:00:19.843Z,809.53
2017-06-25T00:00:24.145Z,809.53
2017-06-25T00:00:28.462Z,809.54
2017-06-25T00:00:32.660Z,809.51
2017-06-25T00:00:37.082Z,809.51
2017-06-25T00:00:41.504Z,809.49
2017-06-25T00:00:45.922Z,809.5
2017-06-25T00:00:50.227Z,809.48
2017-06-25T00:00:54.557Z,809.5
2017-06-25T00:00:58.973Z,809.51
2017-06-25T00:01:03.157Z,809.5
2017-06-25T00:01:07.586Z,809.52
2017-06-25T00:01:12.014Z,809.47
2017-06-25T00:01:16.199Z,809.48
2017-06-25T00:01:20.506Z,809.51
2017-06-25T00:01:24.694Z,809.44
2017-06-25T00:01:29.000Z,809.45
2017-06-25T00:01:33.307Z,809.46
2017-06-25T00:01:37.629Z,809.46
2017-06-25T00:01:41.933Z,809.46
2017-06-25T00:01:46.356Z,809.49
2017-06-25T00:01:50.773Z,809.48
2017-06-25T00:01:55.087Z,809.47
2017-06-25T00:01:59.534Z,809.5
2017-06-25T00:02:04.205Z,809.46
2017-06-25T00:02:08.512Z,809.47
2017-06-25T00:02:12.935Z,809.47
2017-06-25T00:02:17.359Z,809.49
2017-06-25T00:02:21.666Z,809.49
2017-06-25T00:02:25.853Z,809.45
2017-06-25T00:02:30.158Z,809.45
2017-06-25T00:02:34.466Z,809.46
2017-06-25T00:02:38.896Z,809.46
2017-06-25T00:02:43.314Z,809.46
2017-06-25T00:02:47.745Z,809.46
2017-06-25T00:02:51.937Z,809.44
2017-06-25T00:02:56.360Z,809.46
2017-06-25T00:03:00.828Z,809.43
2017-06-25T00:03:05.405Z,809.46
2017-06-25T00:03:09.830Z,809.46
2017-06-25T00:03:14.257Z,809.45
2017-06-25T00:03:18.682Z,809.49
2017-06-25T00:03:22.881Z,809.41
2017-06-25T00:03:26.949Z,809.42
2017-06-25T00:03:31.016Z,809.45
2017-06-25T00:03:35.205Z,809.41
2017-06-25T00:03:39.511Z,809.42
2017-06-25T00:03:43.818Z,809.44
2017-06-25T00:03:48.235Z,809.45
2017-06-25T00:03:52.539Z,809.43
2017-06-25T00:03:56.721Z,809.43
2017-06-25T00:04:01.148Z,809.43
2017-06-25T00:04:05.514Z,809.44
2017-06-25T00:04:09.819Z,809.41
2017-06-25T00:04:14.238Z,809.41
2017-06-25T00:04:18.659Z,809.38
2017-06-25T00:04:22.963Z,809.45
2017-06-25T00:04:27.037Z,809.45
2017-06-25T00:04:31.224Z,809.44
2017-06-25T00:04:35.530Z,809.47
2017-06-25T00:04:39.953Z,809.41
2017-06-25T00:04:44.377Z,809.42
2017-06-25T00:04:48.799Z,809.45
2017-06-25T00:04:53.222Z,809.49
2017-06-25T00:04:57.695Z,809.47
2017-06-25T00:05:02.110Z,809.45
2017-06-25T00:05:06.317Z,809.43
2017-06-25T00:05:10.743Z,809.46
2017-06-25T00:05:15.167Z,809.45
2017-06-25T00:05:19.474Z,809.43
2017-06-25T00:05:23.660Z,809.41
2017-06-25T00:05:28.106Z,809.44
2017-06-25T00:05:32.413Z,809.44
2017-06-25T00:05:36.602Z,809.43
2017-06-25T00:05:40.903Z,809.45
2017-06-25T00:05:45.333Z,809.47
2017-06-25T00:05:49.641Z,809.46
2017-06-25T00:05:53.946Z,809.44
2017-06-25T00:05:58.364Z,809.46
2017-06-25T00:06:02.785Z,809.45
2017-06-25T00:06:06.986Z,809.46
2017-06-25T00:06:11.067Z,809.45
2017-06-25T00:06:15.489Z,809.45
2017-06-25T00:06:19.909Z,809.46
2017-06-25T00:06:24.100Z,809.43
2017-06-25T00:06:28.293Z,809.46
2017-06-25T00:06:32.492Z,809.47
2017-06-25T00:06:36.922Z,809.46
2017-06-25T00:06:41.225Z,809.49
2017-06-25T00:06:45.652Z,809.52
2017-06-25T00:06:49.956Z,809.48
2017-06-25T00:06:54.148Z,809.48
2017-06-25T00:06:58.590Z,809.47
2017-06-25T00:07:02.774Z,809.51
2017-06-25T00:07:06.979Z,809.51
2017-06-25T00:07:11.283Z,809.5
2017-06-25T00:07:15.702Z,809.51
2017-06-25T00:07:20.044Z,809.48
2017-06-25T00:07:24.228Z,809.53
2017-06-25T00:07:28.528Z,809.51
2017-06-25T00:07:32.592Z,809.5
2017-06-25T00:07:37.012Z,809.48
2017-06-25T00:07:41.318Z,809.53
2017-06-25T00:07:45.742Z,809.5
2017-06-25T00:07:50.162Z,809.51
2017-06-25T00:07:54.466Z,809.53
2017-06-25T00:07:58.653Z,809.48
2017-06-25T00:08:02.962Z,809.52
2017-06-25T00:08:07.265Z,809.53
2017-06-25T00:08:11.688Z,809.51
2017-06-25T00:08:15.873Z,809.55
2017-06-25T00:08:20.294Z,809.57
2017-06-25T00:08:24.716Z,809.56
2017-06-25T00:08:29.017Z,809.55
2017-06-25T00:08:33.083Z,809.55
2017-06-25T00:08:37.507Z,809.55
2017-06-25T00:08:41.927Z,809.54
2017-06-25T00:08:46.351Z,809.58
2017-06-25T00:08:50.654Z,809.53
2017-06-25T00:08:54.961Z,809.52
2017-06-25T00:08:59.271Z,809.52
2017-06-25T00:09:03.699Z,809.54
2017-06-25T00:09:08.146Z,809.56
2017-06-25T00:09:12.574Z,809.54
2017-06-25T00:09:16.998Z,809.54
2017-06-25T00:09:21.297Z,809.55
2017-06-25T00:09:25.482Z,809.56
2017-06-25T00:09:29.789Z,809.54
2017-06-25T00:09:34.094Z,809.52
2017-06-25T00:09:38.512Z,809.56
2017-06-25T00:09:42.817Z,809.52
2017-06-25T00:09:47.239Z,809.58
2017-06-25T00:09:51.668Z,809.58
2017-06-25T00:09:56.085Z,809.56
2017-06-25T00:10:00.636Z,809.57
2017-06-25T00:10:05.041Z,809.56
2017-06-25T00:10:09.471Z,809.57
2017-06-25T00:10:13.898Z,809.57
2017-06-25T00:10:18.208Z,809.59
2017-06-25T00:10:22.394Z,809.56
2017-06-25T00:10:26.584Z,809.58
2017-06-25T00:10:30.888Z,809.59
2017-06-25T00:10:35.079Z,809.61
2017-06-25T00:10:39.499Z,809.58
2017-06-25T00:10:43.804Z,809.58
2017-06-25T00:10:48.105Z,809.57
2017-06-25T00:10:52.527Z,809.62
2017-06-25T00:10:56.957Z,809.6
2017-06-25T00:11:01.383Z,809.55
2017-06-25T00:11:05.682Z,809.61
2017-06-25T00:11:10.103Z,809.61
2017-06-25T00:11:14.531Z,809.57
2017-06-25T00:11:18.965Z,809.59
2017-06-25T00:11:23.263Z,809.59
2017-06-25T00:11:27.330Z,809.62
2017-06-25T00:11:31.518Z,809.61
2017-06-25T00:11:35.710Z,809.62
2017-06-25T00:11:40.014Z,809.62
2017-06-25T00:11:44.318Z,809.58
2017-06-25T00:11:48.739Z,809.62
2017-06-25T00:11:52.927Z,809.56
2017-06-25T00:11:57.233Z,809.59
2017-06-25T00:12:01.540Z,809.61
2017-06-25T00:12:05.732Z,809.61
2017-06-25T00:12:10.152Z,809.59
2017-06-25T00:12:14.575Z,809.61
2017-06-25T00:12:18.995Z,809.62
2017-06-25T00:12:23.422Z,809.6
2017-06-25T00:12:27.490Z,809.57
2017-06-25T00:12:31.674Z,809.59
2017-06-25T00:12:35.977Z,809.58
2017-06-25T00:12:40.395Z,809.58
2017-06-25T00:12:44.724Z,809.6
2017-06-25T00:12:49.146Z,809.58
2017-06-25T00:12:53.446Z,809.62
2017-06-25T00:12:57.867Z,809.57
2017-06-25T00:13:02.169Z,809.59
2017-06-25T00:13:06.517Z,809.6
2017-06-25T00:13:10.936Z,809.59
2017-06-25T00:13:15.354Z,809.62
2017-06-25T00:13:19.660Z,809.59
2017-06-25T00:13:23.963Z,809.61
2017-06-25T00:13:28.308Z,809.62
2017-06-25T00:13:32.608Z,809.6
2017-06-25T00:13:37.034Z,809.58
2017-06-25T00:13:41.213Z,809.62
2017-06-25T00:13:45.636Z,809.61
2017-06-25T00:13:49.972Z,809.62
2017-06-25T00:13:54.158Z,809.61
2017-06-25T00:13:58.574Z,809.62
2017-06-25T00:14:03.063Z,809.6
2017-06-25T00:14:07.484Z,809.61
2017-06-25T00:14:11.910Z,809.61
2017-06-25T00:14:16.232Z,809.63
2017-06-25T00:14:20.534Z,809.61
2017-06-25T00:14:24.724Z,809.61
2017-06-25T00:14:29.026Z,809.62
2017-06-25T00:14:33.221Z,809.64
2017-06-25T00:14:37.643Z,809.61
2017-06-25T00:14:41.829Z,809.61
2017-06-25T00:14:46.248Z,809.6
2017-06-25T00:14:50.556Z,809.59
2017-06-25T00:14:54.863Z,809.57
2017-06-25T00:14:59.309Z,809.62
2017-06-25T00:15:03.616Z,809.64
2017-06-25T00:15:08.039Z,809.62
2017-06-25T00:15:12.465Z,809.62
2017-06-25T00:15:16.891Z,809.61
2017-06-25T00:15:21.312Z,809.57
2017-06-25T00:15:25.497Z,809.58
2017-06-25T00:15:29.922Z,809.6
2017-06-25T00:15:34.105Z,809.62
2017-06-25T00:15:38.416Z,809.6
2017-06-25T00:15:42.727Z,809.55
2017-06-25T00:15:47.039Z,809.57
2017-06-25T00:15:51.462Z,809.54
2017-06-25T00:15:55.882Z,809.57
2017-06-25T00:16:00.071Z,809.63
2017-06-25T00:16:04.843Z,809.57
2017-06-25T00:16:09.267Z,809.62
2017-06-25T00:16:13.574Z,809.6
2017-06-25T00:16:17.878Z,809.62
2017-06-25T00:16:22.307Z,809.61
2017-06-25T00:16:26.509Z,809.61
2017-06-25T00:16:30.931Z,809.59
2017-06-25T00:16:35.121Z,809.59
2017-06-25T00:16:39.547Z,809.6
2017-06-25T00:16:43.742Z,809.58
2017-06-25T00:16:48.164Z,809.55
2017-06-25T00:16:52.584Z,809.56
2017-06-25T00:16:57.012Z,809.55
2017-06-25T00:17:01.441Z,809.58
2017-06-25T00:17:05.638Z,809.59
2017-06-25T00:17:10.067Z,809.6
2017-06-25T00:17:14.490Z,809.57
2017-06-25T00:17:18.915Z,809.55
2017-06-25T00:17:23.102Z,809.57
2017-06-25T00:17:27.409Z,809.58
2017-06-25T00:17:31.601Z,809.57
2017-06-25T00:17:35.785Z,809.58
2017-06-25T00:17:40.209Z,809.56
2017-06-25T00:17:44.635Z,809.56
2017-06-25T00:17:48.950Z,809.55
2017-06-25T00:17:53.369Z,809.58
2017-06-25T00:17:57.786Z,809.57
2017-06-25T00:18:02.457Z,809.56
2017-06-25T00:18:06.879Z,809.55
2017-06-25T00:18:11.307Z,809.56
2017-06-25T00:18:15.726Z,809.53
2017-06-25T00:18:19.914Z,809.5
2017-06-25T00:18:23.987Z,809.57
2017-06-25T00:18:28.292Z,809.53
2017-06-25T00:18:32.366Z,809.57
2017-06-25T00:18:36.808Z,809.52
2017-06-25T00:18:41.231Z,809.56
2017-06-25T00:18:45.651Z,809.55
2017-06-25T00:18:50.072Z,809.54
2017-06-25T00:18:54.494Z,809.55
2017-06-25T00:18:58.912Z,809.54
2017-06-25T00:19:03.328Z,809.55
2017-06-25T00:19:07.769Z,809.52
2017-06-25T00:19:12.191Z,809.48
2017-06-25T00:19:16.286Z,809.54
2017-06-25T00:19:20.592Z,809.54
2017-06-25T00:19:24.775Z,809.55
2017-06-25T00:19:29.082Z,809.54
2017-06-25T00:19:33.385Z,809.54
2017-06-25T00:19:37.810Z,809.54
2017-06-25T00:19:42.115Z,809.53
2017-06-25T00:19:46.530Z,809.51
2017-06-25T00:19:50.950Z,809.55
2017-06-25T00:19:55.366Z,809.53
2017-06-25T00:19:59.679Z,809.49
2017-06-25T00:20:04.286Z,809.54
2017-06-25T00:20:08.474Z,809.54
2017-06-25T00:20:12.773Z,809.53
2017-06-25T00:20:16.967Z,809.55
2017-06-25T00:20:21.408Z,809.53
2017-06-25T00:20:25.709Z,809.56
2017-06-25T00:20:30.016Z,809.51
2017-06-25T00:20:34.444Z,809.52
2017-06-25T00:20:38.750Z,809.48
2017-06-25T00:20:43.057Z,809.49
2017-06-25T00:20:47.478Z,809.52
2017-06-25T00:20:51.778Z,809.52
2017-06-25T00:20:56.197Z,809.54
2017-06-25T00:21:00.621Z,809.5
2017-06-25T00:21:04.930Z,809.48
2017-06-25T00:21:09.240Z,809.45
2017-06-25T00:21:13.661Z,809.51
2017-06-25T00:21:17.967Z,809.46
2017-06-25T00:21:22.280Z,809.5
2017-06-25T00:21:26.474Z,809.5
2017-06-25T00:21:30.543Z,809.51
2017-06-25T00:21:34.964Z,809.52
2017-06-25T00:21:39.394Z,809.53
2017-06-25T00:21:43.831Z,809.48
2017-06-25T00:21:48.254Z,809.51
2017-06-25T00:21:52.679Z,809.48
2017-06-25T00:21:57.106Z,809.48
2017-06-25T00:22:01.529Z,809.5
2017-06-25T00:22:05.724Z,809.51
2017-06-25T00:22:10.150Z,809.46
2017-06-25T00:22:14.569Z,809.47
2017-06-25T00:22:18.991Z,809.46
2017-06-25T00:22:23.300Z,809.46
2017-06-25T00:22:27.612Z,809.47
2017-06-25T00:22:31.939Z,809.48
2017-06-25T00:22:36.361Z,809.47
2017-06-25T00:22:40.667Z,809.46
2017-06-25T00:22:45.089Z,809.5
2017-06-25T00:22:49.397Z,809.46
2017-06-25T00:22:53.827Z,809.45
2017-06-25T00:22:58.245Z,809.44
2017-06-25T00:23:02.667Z,809.49
2017-06-25T00:23:06.743Z,809.44
2017-06-25T00:23:11.173Z,809.44
2017-06-25T00:23:15.598Z,809.44
2017-06-25T00:23:20.024Z,809.43
2017-06-25T00:23:24.330Z,809.45
2017-06-25T00:23:28.641Z,809.42
2017-06-25T00:23:32.622Z,809.39
2017-06-25T00:23:37.041Z,809.42
2017-06-25T00:23:41.469Z,809.42
2017-06-25T00:23:45.896Z,809.4
2017-06-25T00:23:50.203Z,809.41
2017-06-25T00:23:54.621Z,809.42
2017-06-25T00:23:59.038Z,809.42
2017-06-25T00:24:03.464Z,809.41
2017-06-25T00:24:07.783Z,809.37
2017-06-25T00:24:12.210Z,809.4
2017-06-25T00:24:16.634Z,809.38
2017-06-25T00:24:21.054Z,809.38
2017-06-25T00:24:25.238Z,809.38
2017-06-25T00:24:29.543Z,809.38
2017-06-25T00:24:33.853Z,809.39
2017-06-25T00:24:38.276Z,809.4
2017-06-25T00:24:42.694Z,809.38
2017-06-25T00:24:47.117Z,809.36
2017-06-25T00:24:51.544Z,809.38
2017-06-25T00:24:55.963Z,809.32
2017-06-25T00:25:00.385Z,809.31
2017-06-25T00:25:04.905Z,809.34
2017-06-25T00:25:09.337Z,809.34
2017-06-25T00:25:13.768Z,809.33
2017-06-25T00:25:18.195Z,809.33
2017-06-25T00:25:22.265Z,809.34
2017-06-25T00:25:26.572Z,809.35
2017-06-25T00:25:30.885Z,809.34
2017-06-25T00:25:35.192Z,809.36
2017-06-25T00:25:39.616Z,809.33
2017-06-25T00:25:44.037Z,809.32
2017-06-25T00:25:48.464Z,809.33
2017-06-25T00:25:52.769Z,809.3
2017-06-25T00:25:57.199Z,809.33
2017-06-25T00:26:01.623Z,809.31
2017-06-25T00:26:06.392Z,809.3
2017-06-25T00:26:10.813Z,809.31
2017-06-25T00:26:15.126Z,809.33
2017-06-25T00:26:19.459Z,809.34
2017-06-25T00:26:23.880Z,809.3
2017-06-25T00:26:27.945Z,809.32
2017-06-25T00:26:32.370Z,809.32
2017-06-25T00:26:36.803Z,809.29
2017-06-25T00:26:41.108Z,809.32
2017-06-25T00:26:45.526Z,809.28
2017-06-25T00:26:49.944Z,809.29
2017-06-25T00:26:54.242Z,809.26
2017-06-25T00:26:58.665Z,809.26
2017-06-25T00:27:03.336Z,809.31
2017-06-25T00:27:07.771Z,809.32
2017-06-25T00:27:12.193Z,809.28
2017-06-25T00:27:16.620Z,809.3
2017-06-25T00:27:21.044Z,809.31
2017-06-25T00:27:25.235Z,809.29
2017-06-25T00:27:29.422Z,809.31
2017-06-25T00:27:33.732Z,809.29
2017-06-25T00:27:38.155Z,809.31
2017-06-25T00:27:42.602Z,809.29
2017-06-25T00:27:47.023Z,809.32
2017-06-25T00:27:51.439Z,809.31
2017-06-25T00:27:55.737Z,809.33
2017-06-25T00:28:00.153Z,809.32
2017-06-25T00:28:04.582Z,809.3
2017-06-25T00:28:09.007Z,809.3
2017-06-25T00:28:13.310Z,809.27
2017-06-25T00:28:17.725Z,809.33
2017-06-25T00:28:22.036Z,809.29
2017-06-25T00:28:26.346Z,809.3
2017-06-25T00:28:30.650Z,809.32
2017-06-25T00:28:34.837Z,809.34
2017-06-25T00:28:39.255Z,809.3
2017-06-25T00:28:43.557Z,809.3
2017-06-25T00:28:48.009Z,809.31
2017-06-25T00:28:52.430Z,809.32
2017-06-25T00:28:56.729Z,809.33
2017-06-25T00:29:01.155Z,809.29
2017-06-25T00:29:05.814Z,809.31
2017-06-25T00:29:10.133Z,809.34
2017-06-25T00:29:14.554Z,809.31
2017-06-25T00:29:18.970Z,809.33
2017-06-25T00:29:23.277Z,809.31
2017-06-25T00:29:27.705Z,809.36
2017-06-25T00:29:32.014Z,809.33
2017-06-25T00:29:36.198Z,809.34
2017-06-25T00:29:40.619Z,809.35
2017-06-25T00:29:44.926Z,809.34
2017-06-25T00:29:49.346Z,809.3
2017-06-25T00:29:53.774Z,809.32
2017-06-25T00:29:58.195Z,809.33
2017-06-25T00:30:02.613Z,809.31
2017-06-25T00:30:06.806Z,809.32
2017-06-25T00:30:10.995Z,809.36
2017-06-25T00:30:15.326Z,809.33
2017-06-25T00:30:19.750Z,809.34
2017-06-25T00:30:24.055Z,809.31
2017-06-25T00:30:28.475Z,809.34
2017-06-25T00:30:32.785Z,809.33
2017-06-25T00:30:37.232Z,809.33
2017-06-25T00:30:41.654Z,809.31
2017-06-25T00:30:45.961Z,809.34
2017-06-25T00:30:50.383Z,809.36
2017-06-25T00:30:54.708Z,809.34
2017-06-25T00:30:59.132Z,809.36
2017-06-25T00:31:03.437Z,809.34
2017-06-25T00:31:07.767Z,809.34
2017-06-25T00:31:12.188Z,809.32
2017-06-25T00:31:16.493Z,809.33
2017-06-25T00:31:20.918Z,809.32
2017-06-25T00:31:25.222Z,809.32
2017-06-25T00:31:29.643Z,809.35
2017-06-25T00:31:34.069Z,809.31
2017-06-25T00:31:38.504Z,809.34
2017-06-25T00:31:42.925Z,809.37
2017-06-25T00:31:47.342Z,809.35
2017-06-25T00:31:51.772Z,809.35
2017-06-25T00:31:56.194Z,809.37
2017-06-25T00:32:00.148Z,809.34
2017-06-25T00:32:04.339Z,809.34
2017-06-25T00:32:08.761Z,809.35
2017-06-25T00:32:13.185Z,809.39
2017-06-25T00:32:17.605Z,809.37
2017-06-25T00:32:21.793Z,809.36
2017-06-25T00:32:25.981Z,809.36
2017-06-25T00:32:30.399Z,809.37
2017-06-25T00:32:34.704Z,809.36
2017-06-25T00:32:39.122Z,809.38
2017-06-25T00:32:43.543Z,809.39
2017-06-25T00:32:47.845Z,809.41
2017-06-25T00:32:52.033Z,809.38
2017-06-25T00:32:56.456Z,809.4
2017-06-25T00:33:00.872Z,809.41
2017-06-25T00:33:05.642Z,809.39
2017-06-25T00:33:09.946Z,809.38
2017-06-25T00:33:14.368Z,809.4
2017-06-25T00:33:18.554Z,809.41
2017-06-25T00:33:22.740Z,809.41
2017-06-25T00:33:26.582Z,809.38
2017-06-25T00:33:30.655Z,809.37
2017-06-25T00:33:35.074Z,809.38
2017-06-25T00:33:39.493Z,809.4
2017-06-25T00:33:43.565Z,809.4
2017-06-25T00:33:47.986Z,809.39
2017-06-25T00:33:52.410Z,809.4
2017-06-25T00:33:56.594Z,809.39
2017-06-25T00:34:00.894Z,809.39
2017-06-25T00:34:05.198Z,809.42
2017-06-25T00:34:09.650Z,809.4
2017-06-25T00:34:14.072Z,809.44
2017-06-25T00:34:18.502Z,809.4
2017-06-25T00:34:22.804Z,809.45
2017-06-25T00:34:26.876Z,809.44
2017-06-25T00:34:30.941Z,809.44
2017-06-25T00:34:35.361Z,809.46
2017-06-25T00:34:39.777Z,809.46
2017-06-25T00:34:43.963Z,809.4
2017-06-25T00:34:48.394Z,809.43
2017-06-25T00:34:52.695Z,809.47
2017-06-25T00:34:57.117Z,809.43
2017-06-25T00:35:01.537Z,809.46
2017-06-25T00:35:06.142Z,809.46
2017-06-25T00:35:10.592Z,809.47
2017-06-25T00:35:15.018Z,809.48
2017-06-25T00:35:19.446Z,809.5
2017-06-25T00:35:23.869Z,809.5
2017-06-25T00:35:27.950Z,809.49
2017-06-25T00:35:32.253Z,809.49
2017-06-25T00:35:36.556Z,809.48
2017-06-25T00:35:40.974Z,809.45
2017-06-25T00:35:45.402Z,809.47
2017-06-25T00:35:49.615Z,809.48
2017-06-25T00:35:54.035Z,809.5
2017-06-25T00:35:58.454Z,809.45
2017-06-25T00:36:02.873Z,809.46
2017-06-25T00:36:07.298Z,809.47
2017-06-25T00:36:11.739Z,809.49
2017-06-25T00:36:16.160Z,809.51
2017-06-25T00:36:20.584Z,809.5
2017-06-25T00:36:24.894Z,809.53
2017-06-25T00:36:29.081Z,809.52
2017-06-25T00:36:33.396Z,809.48
2017-06-25T00:36:37.458Z,809.52
2017-06-25T00:36:41.765Z,809.52
2017-06-25T00:36:46.182Z,809.53
2017-06-25T00:36:50.608Z,809.52
2017-06-25T00:36:55.036Z,809.54
2017-06-25T00:36:59.458Z,809.52
2017-06-25T00:37:03.879Z,809.5
2017-06-25T00:37:08.083Z,809.54
2017-06-25T00:37:12.512Z,809.51
2017-06-25T00:37:16.936Z,809.54
2017-06-25T00:37:21.120Z,809.52
2017-06-25T00:37:25.541Z,809.52
2017-06-25T00:37:29.851Z,809.53
2017-06-25T00:37:34.160Z,809.52
2017-06-25T00:37:38.462Z,809.52
2017-06-25T00:37:42.766Z,809.51
2017-06-25T00:37:47.183Z,809.54
2017-06-25T00:37:51.602Z,809.52
2017-06-25T00:37:56.026Z,809.55
2017-06-25T00:38:00.334Z,809.53
2017-06-25T00:38:04.687Z,809.55
2017-06-25T00:38:09.001Z,809.55
2017-06-25T00:38:13.431Z,809.46
2017-06-25T00:38:17.856Z,809.5
2017-06-25T00:38:22.163Z,809.49
2017-06-25T00:38:26.108Z,809.52
2017-06-25T00:38:30.411Z,809.45
2017-06-25T00:38:34.832Z,809.5
2017-06-25T00:38:39.135Z,809.48
2017-06-25T00:38:43.571Z,809.48
2017-06-25T00:38:47.989Z,809.45
2017-06-25T00:38:52.412Z,809.48
2017-06-25T00:38:56.601Z,809.48
2017-06-25T00:39:01.023Z,809.49
2017-06-25T00:39:05.438Z,809.48
2017-06-25T00:39:09.858Z,809.5
2017-06-25T00:39:14.280Z,809.48
2017-06-25T00:39:18.579Z,809.48
2017-06-25T00:39:22.885Z,809.49
2017-06-25T00:39:26.974Z,809.43
2017-06-25T00:39:31.163Z,809.44
2017-06-25T00:39:35.586Z,809.46
2017-06-25T00:39:40.004Z,809.42
2017-06-25T00:39:44.433Z,809.44
2017-06-25T00:39:48.740Z,809.44
2017-06-25T00:39:53.158Z,809.41
2017-06-25T00:39:57.579Z,809.41
2017-06-25T00:40:01.765Z,809.44
2017-06-25T00:40:06.375Z,809.41
2017-06-25T00:40:10.798Z,809.45
2017-06-25T00:40:15.103Z,809.43
2017-06-25T00:40:19.408Z,809.42
2017-06-25T00:40:23.710Z,809.43
2017-06-25T00:40:28.133Z,809.39
2017-06-25T00:40:32.324Z,809.38
2017-06-25T00:40:36.628Z,809.4
2017-06-25T00:40:41.050Z,809.42
2017-06-25T00:40:45.473Z,809.41
2017-06-25T00:40:49.901Z,809.41
2017-06-25T00:40:54.203Z,809.41
2017-06-25T00:40:58.624Z,809.4
2017-06-25T00:41:03.046Z,809.39
2017-06-25T00:41:07.001Z,809.4
2017-06-25T00:41:11.425Z,809.41
2017-06-25T00:41:15.846Z,809.4
2017-06-25T00:41:20.146Z,809.39
2017-06-25T00:41:24.336Z,809.39
2017-06-25T00:41:28.641Z,809.39
2017-06-25T00:41:32.597Z,809.37
2017-06-25T00:41:37.016Z,809.35
2017-06-25T00:41:41.434Z,809.36
2017-06-25T00:41:45.852Z,809.39
2017-06-25T00:41:50.283Z,809.36
2017-06-25T00:41:54.736Z,809.35
2017-06-25T00:41:59.041Z,809.36
2017-06-25T00:42:03.471Z,809.36
2017-06-25T00:42:07.797Z,809.31
2017-06-25T00:42:12.227Z,809.37
2017-06-25T00:42:16.537Z,809.36
2017-06-25T00:42:20.961Z,809.34
2017-06-25T00:42:25.385Z,809.35
2017-06-25T00:42:29.690Z,809.32
2017-06-25T00:42:34.134Z,809.32
2017-06-25T00:42:38.565Z,809.33
2017-06-25T00:42:42.864Z,809.32
2017-06-25T00:42:47.172Z,809.3
2017-06-25T00:42:51.599Z,809.32
2017-06-25T00:42:55.795Z,809.34
2017-06-25T00:43:00.126Z,809.39
2017-06-25T00:43:04.917Z,809.31
2017-06-25T00:43:09.220Z,809.36
2017-06-25T00:43:13.637Z,809.38
2017-06-25T00:43:17.950Z,809.33
2017-06-25T00:43:22.399Z,809.36
2017-06-25T00:43:26.587Z,809.34
2017-06-25T00:43:30.536Z,809.37
2017-06-25T00:43:34.721Z,809.36
2017-06-25T00:43:39.153Z,809.31
2017-06-25T00:43:43.223Z,809.3
2017-06-25T00:43:47.527Z,809.33
2017-06-25T00:43:51.946Z,809.36
2017-06-25T00:43:56.370Z,809.34
2017-06-25T00:44:00.800Z,809.33
2017-06-25T00:44:05.154Z,809.34
2017-06-25T00:44:09.575Z,809.31
2017-06-25T00:44:14.000Z,809.35
2017-06-25T00:44:18.307Z,809.35
2017-06-25T00:44:22.740Z,809.37
2017-06-25T00:44:27.169Z,809.35
2017-06-25T00:44:31.472Z,809.33
2017-06-25T00:44:35.771Z,809.36
2017-06-25T00:44:40.081Z,809.34
2017-06-25T00:44:44.507Z,809.3
2017-06-25T00:44:48.929Z,809.34
2017-06-25T00:44:53.355Z,809.37
2017-06-25T00:44:57.774Z,809.34
2017-06-25T00:45:02.208Z,809.36
2017-06-25T00:45:06.531Z,809.36
2017-06-25T00:45:10.963Z,809.35
2017-06-25T00:45:15.387Z,809.35
2017-06-25T00:45:19.687Z,809.37
2017-06-25T00:45:24.115Z,809.37
2017-06-25T00:45:28.560Z,809.38
2017-06-25T00:45:32.986Z,809.39
2017-06-25T00:45:37.410Z,809.4
2017-06-25T00:45:41.723Z,809.38
2017-06-25T00:45:46.175Z,809.36
2017-06-25T00:45:50.597Z,809.39
2017-06-25T00:45:55.021Z,809.37
2017-06-25T00:45:59.322Z,809.4
2017-06-25T00:46:03.748Z,809.39
2017-06-25T00:46:08.181Z,809.39
2017-06-25T00:46:12.605Z,809.41
2017-06-25T00:46:16.906Z,809.38
2017-06-25T00:46:21.095Z,809.33
2017-06-25T00:46:25.288Z,809.38
2017-06-25T00:46:29.737Z,809.35
2017-06-25T00:46:34.045Z,809.37
2017-06-25T00:46:38.468Z,809.39
2017-06-25T00:46:42.884Z,809.4
2017-06-25T00:46:47.306Z,809.43
2017-06-25T00:46:51.738Z,809.41
2017-06-25T00:46:56.159Z,809.39
2017-06-25T00:47:00.459Z,809.4
2017-06-25T00:47:04.812Z,809.39
2017-06-25T00:47:09.245Z,809.37
2017-06-25T00:47:13.552Z,809.36
2017-06-25T00:47:17.853Z,809.42
2017-06-25T00:47:22.157Z,809.4
2017-06-25T00:47:26.340Z,809.42
2017-06-25T00:47:30.654Z,809.38
2017-06-25T00:47:34.724Z,809.36
2017-06-25T00:47:39.146Z,809.33
2017-06-25T00:47:43.567Z,809.39
2017-06-25T00:47:47.870Z,809.4
2017-06-25T00:47:52.292Z,809.4
2017-06-25T00:47:56.598Z,809.4
2017-06-25T00:48:01.018Z,809.41
2017-06-25T00:48:05.319Z,809.38
2017-06-25T00:48:09.738Z,809.41
2017-06-25T00:48:14.042Z,809.39
2017-06-25T00:48:18.465Z,809.39
2017-06-25T00:48:22.770Z,809.41
2017-06-25T00:48:27.070Z,809.4
2017-06-25T00:48:31.372Z,809.43
2017-06-25T00:48:35.453Z,809.39
2017-06-25T00:48:39.764Z,809.41
2017-06-25T00:48:44.183Z,809.39
2017-06-25T00:48:48.603Z,809.39
2017-06-25T00:48:52.909Z,809.42
2017-06-25T00:48:57.216Z,809.39
2017-06-25T00:49:01.635Z,809.35
2017-06-25T00:49:06.052Z,809.37
2017-06-25T00:49:10.472Z,809.41
2017-06-25T00:49:14.894Z,809.4
2017-06-25T00:49:19.319Z,809.39
2017-06-25T00:49:23.503Z,809.39
2017-06-25T00:49:27.691Z,809.39
2017-06-25T00:49:31.993Z,809.38
2017-06-25T00:49:36.413Z,809.37
2017-06-25T00:49:40.742Z,809.33
2017-06-25T00:49:45.168Z,809.37
2017-06-25T00:49:49.583Z,809.35
2017-06-25T00:49:54.003Z,809.36
2017-06-25T00:49:58.307Z,809.35
2017-06-25T00:50:02.696Z,809.35
2017-06-25T00:50:06.903Z,809.38
2017-06-25T00:50:11.203Z,809.4
2017-06-25T00:50:15.629Z,809.4
2017-06-25T00:50:20.057Z,809.32
2017-06-25T00:50:24.250Z,809.38
2017-06-25T00:50:28.433Z,809.4
2017-06-25T00:50:32.621Z,809.38
2017-06-25T00:50:36.926Z,809.39
2017-06-25T00:50:41.346Z,809.43
2017-06-25T00:50:45.782Z,809.4
2017-06-25T00:50:50.200Z,809.41
2017-06-25T00:50:54.619Z,809.37
2017-06-25T00:50:59.041Z,809.36
2017-06-25T00:51:03.362Z,809.41
2017-06-25T00:51:07.802Z,809.42
2017-06-25T00:51:12.110Z,809.39
2017-06-25T00:51:16.421Z,809.42
2017-06-25T00:51:20.847Z,809.38
2017-06-25T00:51:24.803Z,809.39
2017-06-25T00:51:29.112Z,809.35
2017-06-25T00:51:33.415Z,809.4
2017-06-25T00:51:37.835Z,809.43
2017-06-25T00:51:42.254Z,809.39
2017-06-25T00:51:46.678Z,809.39
2017-06-25T00:51:51.126Z,809.41
2017-06-25T00:51:55.546Z,809.41
2017-06-25T00:51:59.857Z,809.4
2017-06-25T00:52:04.313Z,809.38
2017-06-25T00:52:08.732Z,809.39
2017-06-25T00:52:13.159Z,809.45
2017-06-25T00:52:17.578Z,809.41
2017-06-25T00:52:22.004Z,809.43
2017-06-25T00:52:26.192Z,809.41
2017-06-25T00:52:30.497Z,809.45
2017-06-25T00:52:34.810Z,809.39
2017-06-25T00:52:39.233Z,809.4
2017-06-25T00:52:43.651Z,809.38
2017-06-25T00:52:48.068Z,809.39
2017-06-25T00:52:52.368Z,809.42
2017-06-25T00:52:56.821Z,809.44
2017-06-25T00:53:01.245Z,809.4
2017-06-25T00:53:05.676Z,809.42
2017-06-25T00:53:10.097Z,809.44
2017-06-25T00:53:14.518Z,809.38
2017-06-25T00:53:18.825Z,809.44
2017-06-25T00:53:23.135Z,809.41
2017-06-25T00:53:27.326Z,809.4
2017-06-25T00:53:31.649Z,809.45
2017-06-25T00:53:35.952Z,809.43
2017-06-25T00:53:40.260Z,809.42
2017-06-25T00:53:44.702Z,809.46
2017-06-25T00:53:49.120Z,809.41
2017-06-25T00:53:53.541Z,809.45
2017-06-25T00:53:57.960Z,809.43
2017-06-25T00:54:02.270Z,809.44
2017-06-25T00:54:06.576Z,809.47
2017-06-25T00:54:10.877Z,809.45
2017-06-25T00:54:15.296Z,809.46
2017-06-25T00:54:19.712Z,809.41
2017-06-25T00:54:24.019Z,809.4
2017-06-25T00:54:28.214Z,809.47